createdAt,value
2023-05-11T00:00:52.452Z,36.88
2023-05-11T00:03:20.116Z,38.02
2023-05-11T00:05:47.883Z,38.06
2023-05-11T00:08:17.173Z,38.05
2023-05-11T00:10:47.283Z,35.82
2023-05-11T00:13:14.506Z,36.19
2023-05-11T00:15:41.742Z,36.13
2023-05-11T00:18:09.275Z,36.98
2023-05-11T00:20:36.406Z,37.46
2023-05-11T00:23:03.537Z,36.99
2023-05-11T00:25:30.926Z,36.28
2023-05-11T00:27:58.136Z,36.27
2023-05-11T00:30:25.321Z,35.54
2023-05-11T00:32:52.839Z,36.03
2023-05-11T00:35:20.183Z,36.99
2023-05-11T00:37:47.444Z,36.92
2023-05-11T00:40:15.121Z,37.17
2023-05-11T00:42:42.309Z,37.76
2023-05-11T00:45:09.529Z,37.05
2023-05-11T00:47:37.683Z,36.83
2023-05-11T00:50:05.616Z,36.43
2023-05-11T00:52:32.812Z,37.57
2023-05-11T00:55:00.254Z,37.13
2023-05-11T00:57:27.460Z,37.57
2023-05-11T00:59:54.646Z,37.24
2023-05-11T01:02:22.169Z,37.38
2023-05-11T01:04:51.794Z,36.80
2023-05-11T01:07:39.300Z,37.08
2023-05-11T01:10:27.439Z,37.46
2023-05-11T01:12:54.574Z,37.73
2023-05-11T01:15:28.809Z,37.00
2023-05-11T01:18:06.575Z,36.65
2023-05-11T01:20:34.436Z,37.35
2023-05-11T01:23:07.708Z,36.61
2023-05-11T01:25:54.685Z,38.42
2023-05-11T01:28:40.242Z,36.72
2023-05-11T01:31:09.717Z,37.01
2023-05-11T01:33:37.679Z,37.44
2023-05-11T01:36:09.220Z,37.54
2023-05-11T01:38:37.754Z,37.35
2023-05-11T01:41:07.653Z,38.59
2023-05-11T01:43:34.900Z,40.56
2023-05-11T01:46:02.351Z,38.10
2023-05-11T01:48:30.721Z,38.29
2023-05-11T01:50:59.508Z,36.97
2023-05-11T01:53:27.988Z,37.81
2023-05-11T01:55:57.206Z,38.22
2023-05-11T01:58:24.398Z,37.95
2023-05-11T02:00:51.832Z,37.78
2023-05-11T02:03:19.355Z,37.42
2023-05-11T02:05:46.585Z,38.58
2023-05-11T02:08:13.794Z,38.92
2023-05-11T02:10:41.764Z,38.60
2023-05-11T02:13:10.036Z,38.13
2023-05-11T02:15:38.085Z,38.26
2023-05-11T02:18:06.413Z,38.66
2023-05-11T02:20:34.427Z,38.96
2023-05-11T02:23:02.381Z,38.15
2023-05-11T02:25:29.814Z,39.09
2023-05-11T02:27:57.076Z,40.05
2023-05-11T02:30:25.636Z,40.58
2023-05-11T02:32:56.543Z,40.21
2023-05-11T02:35:24.546Z,40.45
2023-05-11T02:37:54.377Z,39.81
2023-05-11T02:40:24.773Z,39.44
2023-05-11T02:42:53.729Z,40.90
2023-05-11T02:45:20.972Z,39.77
2023-05-11T02:47:52.989Z,38.85
2023-05-11T02:50:21.356Z,41.14
2023-05-11T02:52:48.911Z,40.13
2023-05-11T02:55:17.453Z,40.35
2023-05-11T02:57:45.027Z,41.25
2023-05-11T03:00:12.791Z,42.88
2023-05-11T03:02:40.322Z,44.44
2023-05-11T03:05:08.061Z,42.54
2023-05-11T03:07:35.290Z,42.48
2023-05-11T03:10:02.911Z,42.63
2023-05-11T03:12:33.890Z,42.72
2023-05-11T03:15:02.467Z,41.99
2023-05-11T03:17:30.056Z,42.06
2023-05-11T03:19:58.796Z,42.27
2023-05-11T03:22:25.940Z,44.36
2023-05-11T03:24:53.045Z,46.88
2023-05-11T03:27:20.469Z,44.03
2023-05-11T03:29:48.410Z,44.41
2023-05-11T03:32:15.749Z,45.97
2023-05-11T03:34:43.314Z,44.72
2023-05-11T03:37:12.991Z,42.99
2023-05-11T03:39:41.604Z,43.50
2023-05-11T03:42:09.095Z,42.90
2023-05-11T03:44:36.389Z,45.84
2023-05-11T03:47:04.174Z,45.63
2023-05-11T03:49:32.349Z,46.29
2023-05-11T03:51:59.537Z,47.65
2023-05-11T03:54:27.117Z,45.94
2023-05-11T03:56:55.871Z,47.85
2023-05-11T03:59:23.085Z,45.32
2023-05-11T04:01:53.999Z,46.86
2023-05-11T04:04:21.560Z,50.22
2023-05-11T04:06:48.783Z,48.07
2023-05-11T04:09:17.038Z,54.83
2023-05-11T04:11:44.573Z,53.81
2023-05-11T04:14:11.809Z,49.47
2023-05-11T04:16:39.274Z,48.42
2023-05-11T04:19:07.415Z,47.11
2023-05-11T04:21:36.067Z,47.65
2023-05-11T04:24:04.216Z,46.48
2023-05-11T04:26:31.912Z,46.17
2023-05-11T04:28:59.395Z,44.92
2023-05-11T04:31:26.945Z,43.67
2023-05-11T04:33:54.589Z,45.71
2023-05-11T04:36:22.432Z,43.32
2023-05-11T04:38:49.716Z,43.92
2023-05-11T04:41:17.215Z,43.36
2023-05-11T04:43:45.656Z,42.90
2023-05-11T04:46:13.595Z,42.14
2023-05-11T04:48:41.636Z,41.18
2023-05-11T04:51:08.984Z,41.16
2023-05-11T04:53:38.112Z,40.86
2023-05-11T04:56:05.833Z,41.07
2023-05-11T04:58:33.289Z,40.62
2023-05-11T05:01:00.845Z,41.65
2023-05-11T05:03:28.371Z,41.42
2023-05-11T05:05:55.680Z,41.48
2023-05-11T05:08:22.906Z,41.71
2023-05-11T05:10:50.333Z,41.80
2023-05-11T05:13:17.878Z,41.13
2023-05-11T05:15:45.122Z,40.90
2023-05-11T05:18:12.606Z,41.49
2023-05-11T05:20:39.875Z,42.05
2023-05-11T05:23:07.057Z,39.93
2023-05-11T05:25:34.673Z,41.37
2023-05-11T05:28:01.951Z,42.20
2023-05-11T05:30:29.283Z,42.40
2023-05-11T05:32:57.041Z,41.46
2023-05-11T05:35:25.645Z,40.49
2023-05-11T05:37:53.362Z,40.73
2023-05-11T05:40:21.852Z,43.38
2023-05-11T05:42:50.030Z,43.53
2023-05-11T05:45:17.526Z,41.94
2023-05-11T05:47:45.048Z,43.19
2023-05-11T05:50:12.489Z,43.47
2023-05-11T05:52:40.957Z,41.92
2023-05-11T05:55:08.682Z,39.65
2023-05-11T05:57:36.144Z,38.04
2023-05-11T06:00:04.019Z,40.97
2023-05-11T06:02:40.090Z,39.98
2023-05-11T06:05:08.374Z,39.84
2023-05-11T06:07:35.698Z,39.20
2023-05-11T06:10:02.977Z,41.61
2023-05-11T06:12:31.175Z,40.12
2023-05-11T06:14:58.653Z,39.46
2023-05-11T06:17:28.425Z,40.83
2023-05-11T06:19:57.100Z,40.23
2023-05-11T06:22:25.754Z,38.57
2023-05-11T06:24:52.955Z,37.93
2023-05-11T06:27:20.821Z,38.08
2023-05-11T06:29:48.987Z,38.16
2023-05-11T06:32:16.838Z,38.60
2023-05-11T06:34:44.626Z,39.62
2023-05-11T06:37:11.803Z,39.61
2023-05-11T06:39:39.053Z,39.17
2023-05-11T06:42:08.119Z,38.32
2023-05-11T06:44:35.434Z,39.57
2023-05-11T06:47:03.389Z,37.43
2023-05-11T06:49:31.042Z,36.83
2023-05-11T06:51:59.582Z,37.92
2023-05-11T06:54:26.831Z,36.93
2023-05-11T06:56:54.304Z,38.36
2023-05-11T06:59:21.466Z,35.68
2023-05-11T07:01:48.646Z,36.81
2023-05-11T07:04:16.265Z,37.03
2023-05-11T07:06:43.504Z,34.69
2023-05-11T07:09:10.652Z,34.60
2023-05-11T07:11:38.612Z,36.12
2023-05-11T07:14:05.962Z,35.81
2023-05-11T07:16:33.202Z,36.01
2023-05-11T07:19:00.757Z,36.60
2023-05-11T07:21:28.331Z,34.98
2023-05-11T07:23:55.604Z,34.88
2023-05-11T07:26:23.116Z,35.90
2023-05-11T07:28:50.756Z,33.00
2023-05-11T07:31:17.933Z,32.24
2023-05-11T07:33:45.430Z,30.59
2023-05-11T07:36:12.653Z,29.23
2023-05-11T07:38:39.844Z,28.43
2023-05-11T07:41:08.888Z,28.45
2023-05-11T07:43:37.365Z,27.33
2023-05-11T07:46:04.637Z,26.43
2023-05-11T07:48:32.129Z,26.42
2023-05-11T07:50:59.601Z,25.75
2023-05-11T07:53:26.897Z,25.94
2023-05-11T07:55:54.469Z,25.03
2023-05-11T07:58:21.686Z,24.66
2023-05-11T08:00:49.047Z,24.84
2023-05-11T08:03:16.744Z,25.13
2023-05-11T08:05:44.535Z,25.01
2023-05-11T08:08:11.780Z,24.30
2023-05-11T08:10:39.807Z,23.22
2023-05-11T08:13:06.976Z,23.44
2023-05-11T08:15:34.421Z,23.09
2023-05-11T08:18:03.044Z,22.75
2023-05-11T08:20:30.520Z,23.76
2023-05-11T08:22:57.959Z,22.39
2023-05-11T08:25:25.455Z,24.17
2023-05-11T08:27:52.756Z,24.16
2023-05-11T08:30:20.161Z,22.84
2023-05-11T08:32:58.001Z,22.60
2023-05-11T08:35:26.611Z,24.29
2023-05-11T08:37:54.038Z,24.48
2023-05-11T08:40:21.257Z,25.11
2023-05-11T08:42:48.482Z,26.10
2023-05-11T08:45:15.964Z,25.78
2023-05-11T08:47:43.286Z,25.97
2023-05-11T08:50:10.749Z,27.12
2023-05-11T08:52:38.312Z,25.69
2023-05-11T08:55:05.679Z,26.35
2023-05-11T08:57:32.843Z,26.05
2023-05-11T09:00:00.943Z,25.93
2023-05-11T09:02:29.476Z,26.07
2023-05-11T09:04:56.705Z,26.95
2023-05-11T09:07:24.222Z,26.99
2023-05-11T09:09:51.361Z,26.01
2023-05-11T09:12:18.637Z,26.67
2023-05-11T09:14:47.625Z,26.03
2023-05-11T09:17:14.983Z,26.40
2023-05-11T09:19:56.624Z,26.51
2023-05-11T09:22:43.921Z,24.90
2023-05-11T09:25:11.657Z,25.78
2023-05-11T09:27:43.181Z,25.54
2023-05-11T09:30:11.515Z,26.09
2023-05-11T09:32:58.267Z,25.77
2023-05-11T09:35:26.518Z,25.92
2023-05-11T09:37:57.494Z,26.54
2023-05-11T09:40:27.631Z,26.31
2023-05-11T09:43:01.333Z,27.38
2023-05-11T09:45:57.855Z,26.37
2023-05-11T09:48:29.547Z,26.78
2023-05-11T09:51:01.502Z,25.72
2023-05-11T09:53:39.696Z,25.91
2023-05-11T09:56:07.108Z,25.66
2023-05-11T09:58:54.500Z,23.96
2023-05-11T10:01:32.509Z,23.82
2023-05-11T10:04:17.688Z,23.75
2023-05-11T10:06:49.380Z,25.14
2023-05-11T10:09:17.302Z,23.92
2023-05-11T10:11:45.710Z,22.83
2023-05-11T10:14:13.516Z,23.93
2023-05-11T10:16:41.639Z,23.92
2023-05-11T10:19:09.059Z,25.12
2023-05-11T10:21:37.675Z,24.31
2023-05-11T10:24:05.314Z,24.85
2023-05-11T10:26:32.631Z,24.88
2023-05-11T10:29:00.678Z,23.46
2023-05-11T10:31:29.071Z,24.29
2023-05-11T10:33:57.413Z,24.76
2023-05-11T10:36:25.343Z,24.33
2023-05-11T10:38:52.829Z,24.13
2023-05-11T10:41:30.954Z,22.73
2023-05-11T10:44:19.278Z,22.71
2023-05-11T10:47:01.955Z,23.91
2023-05-11T10:49:29.519Z,24.63
2023-05-11T10:52:16.825Z,25.57
2023-05-11T10:54:59.691Z,25.53
2023-05-11T10:57:37.911Z,24.38
2023-05-11T11:00:30.980Z,23.50
2023-05-11T11:02:59.031Z,23.39
2023-05-11T11:05:33.624Z,23.50
2023-05-11T11:08:03.863Z,22.63
2023-05-11T11:10:31.831Z,22.49
2023-05-11T11:13:02.849Z,22.67
2023-05-11T11:15:48.747Z,22.91
2023-05-11T11:18:34.529Z,23.21
2023-05-11T11:21:01.719Z,23.18
2023-05-11T11:23:41.457Z,22.97
2023-05-11T11:26:10.105Z,23.42
2023-05-11T11:29:02.054Z,23.40
2023-05-11T11:31:30.673Z,22.36
2023-05-11T11:34:19.718Z,22.33
2023-05-11T11:36:56.408Z,22.44
2023-05-11T11:39:27.016Z,23.26
2023-05-11T11:42:03.873Z,23.46
2023-05-11T11:44:31.502Z,23.32
2023-05-11T11:47:14.680Z,23.09
2023-05-11T11:49:43.002Z,23.04
2023-05-11T11:52:36.528Z,21.41
2023-05-11T11:55:04.166Z,21.23
2023-05-11T11:57:34.470Z,22.31
2023-05-11T12:00:05.487Z,22.11
2023-05-11T12:02:42.530Z,22.28
2023-05-11T12:05:10.593Z,21.45
2023-05-11T12:07:38.077Z,21.04
2023-05-11T12:10:05.372Z,21.37
2023-05-11T12:12:32.835Z,22.05
2023-05-11T12:15:02.278Z,21.42
2023-05-11T12:17:30.018Z,21.41
2023-05-11T12:20:14.390Z,21.81
2023-05-11T12:22:42.046Z,21.01
2023-05-11T12:25:11.424Z,20.40
2023-05-11T12:27:48.561Z,21.62
2023-05-11T12:30:19.733Z,22.07
2023-05-11T12:32:46.978Z,21.57
2023-05-11T12:35:16.485Z,21.60
2023-05-11T12:37:44.916Z,20.54
2023-05-11T12:40:12.571Z,20.63
2023-05-11T12:42:39.786Z,21.26
2023-05-11T12:45:07.455Z,23.17
2023-05-11T12:47:35.649Z,23.48
2023-05-11T12:50:03.477Z,23.38
2023-05-11T12:52:30.971Z,23.77
2023-05-11T12:55:01.226Z,24.10
2023-05-11T12:57:29.121Z,23.15
2023-05-11T13:00:08.727Z,22.77
2023-05-11T13:02:36.249Z,22.82
2023-05-11T13:05:10.954Z,23.80
2023-05-11T13:07:38.158Z,24.25
2023-05-11T13:10:06.086Z,23.56
2023-05-11T13:12:34.505Z,22.36
2023-05-11T13:15:08.711Z,22.33
2023-05-11T13:17:37.156Z,22.52
2023-05-11T13:20:15.672Z,22.70
2023-05-11T13:22:43.578Z,21.55
2023-05-11T13:25:10.769Z,22.77
2023-05-11T13:27:38.032Z,22.40
2023-05-11T13:30:06.422Z,23.97
2023-05-11T13:32:33.888Z,24.03
2023-05-11T13:35:02.722Z,22.59
2023-05-11T13:37:30.446Z,23.98
2023-05-11T13:39:57.953Z,23.73
2023-05-11T13:42:25.296Z,24.19
2023-05-11T13:44:52.797Z,22.78
2023-05-11T13:47:20.337Z,23.12
2023-05-11T13:49:47.585Z,22.22
2023-05-11T13:52:15.551Z,23.54
2023-05-11T13:54:42.774Z,22.46
2023-05-11T13:57:10.160Z,22.92
2023-05-11T13:59:37.820Z,23.69
2023-05-11T14:02:05.091Z,22.40
2023-05-11T14:04:32.577Z,23.15
2023-05-11T14:06:59.788Z,23.34
2023-05-11T14:09:27.085Z,24.83
2023-05-11T14:11:54.555Z,24.44
2023-05-11T14:14:21.684Z,24.84
2023-05-11T14:16:49.198Z,24.38
2023-05-11T14:19:16.958Z,23.98
2023-05-11T14:21:44.322Z,24.19
2023-05-11T14:24:12.800Z,24.23
2023-05-11T14:26:40.779Z,23.65
2023-05-11T14:29:08.188Z,24.72
2023-05-11T14:31:36.624Z,24.29
2023-05-11T14:34:04.244Z,24.81
2023-05-11T14:36:32.074Z,23.96
2023-05-11T14:38:59.431Z,24.16
2023-05-11T14:41:27.012Z,24.08
2023-05-11T14:43:54.202Z,23.87
2023-05-11T14:46:21.746Z,24.67
2023-05-11T14:48:49.270Z,24.59
2023-05-11T14:51:16.451Z,25.30
2023-05-11T14:53:43.585Z,24.79
2023-05-11T14:56:11.143Z,24.24
2023-05-11T14:58:38.291Z,24.30
2023-05-11T15:01:05.467Z,24.78
2023-05-11T15:03:33.013Z,23.89
2023-05-11T15:06:00.236Z,23.41
2023-05-11T15:08:30.427Z,23.86
2023-05-11T15:10:58.316Z,23.51
2023-05-11T15:13:25.582Z,24.76
2023-05-11T15:15:52.757Z,25.20
2023-05-11T15:18:20.373Z,24.46
2023-05-11T15:20:47.802Z,24.70
2023-05-11T15:23:16.942Z,25.12
2023-05-11T15:25:45.080Z,25.11
2023-05-11T15:28:12.705Z,23.76
2023-05-11T15:30:41.716Z,23.35
2023-05-11T15:33:10.099Z,23.48
2023-05-11T15:35:37.694Z,24.24
2023-05-11T15:38:04.997Z,24.48
2023-05-11T15:40:32.605Z,25.26
2023-05-11T15:43:00.587Z,24.15
2023-05-11T15:45:28.883Z,24.20
2023-05-11T15:47:57.394Z,24.46
2023-05-11T15:50:25.576Z,25.40
2023-05-11T15:52:52.945Z,24.89
2023-05-11T15:55:20.644Z,25.41
2023-05-11T15:57:48.195Z,26.10
2023-05-11T16:00:16.047Z,26.00
2023-05-11T16:02:45.849Z,26.86
2023-05-11T16:05:13.398Z,25.95
2023-05-11T16:07:40.791Z,26.49
2023-05-11T16:10:08.902Z,26.86
2023-05-11T16:12:36.330Z,30.81
2023-05-11T16:15:04.004Z,32.54
2023-05-11T16:17:31.764Z,34.90
2023-05-11T16:20:00.361Z,36.67
2023-05-11T16:22:28.130Z,37.66
2023-05-11T16:24:55.709Z,38.52
2023-05-11T16:27:23.058Z,38.56
2023-05-11T16:29:50.137Z,38.52
2023-05-11T16:32:18.620Z,39.08
2023-05-11T16:34:46.471Z,39.82
2023-05-11T16:37:13.719Z,40.03
2023-05-11T16:39:41.397Z,39.71
2023-05-11T16:42:08.670Z,38.80
2023-05-11T16:44:36.041Z,39.92
2023-05-11T16:47:03.744Z,39.91
2023-05-11T16:49:30.949Z,39.42
2023-05-11T16:51:58.275Z,40.21
2023-05-11T16:54:26.417Z,40.97
2023-05-11T16:56:53.792Z,41.10
2023-05-11T16:59:20.982Z,40.79
2023-05-11T17:01:49.411Z,40.07
2023-05-11T17:04:17.142Z,39.95
2023-05-11T17:06:44.426Z,41.25
2023-05-11T17:09:12.658Z,42.75
2023-05-11T17:11:39.953Z,45.82
2023-05-11T17:14:07.104Z,46.17
2023-05-11T17:16:34.725Z,46.15
2023-05-11T17:19:02.060Z,47.16
2023-05-11T17:21:29.281Z,43.20
2023-05-11T17:23:56.890Z,44.02
2023-05-11T17:26:27.509Z,43.38
2023-05-11T17:29:00.251Z,40.90
2023-05-11T17:31:27.529Z,37.79
2023-05-11T17:33:55.020Z,39.43
2023-05-11T17:36:22.855Z,39.65
2023-05-11T17:38:51.389Z,38.41
2023-05-11T17:41:18.583Z,37.18
2023-05-11T17:43:47.662Z,39.16
2023-05-11T17:46:16.208Z,41.45
2023-05-11T17:48:43.376Z,44.56
2023-05-11T17:51:10.854Z,44.78
2023-05-11T17:53:38.373Z,44.16
2023-05-11T17:56:08.016Z,42.55
2023-05-11T17:58:35.510Z,43.01
2023-05-11T18:01:16.031Z,45.12
2023-05-11T18:03:44.148Z,45.68
2023-05-11T18:06:11.665Z,45.48
2023-05-11T18:08:39.049Z,46.10
2023-05-11T18:11:07.697Z,47.04
2023-05-11T18:13:35.678Z,47.42
2023-05-11T18:16:03.719Z,48.96
2023-05-11T18:18:32.066Z,49.29
2023-05-11T18:21:04.327Z,50.10
2023-05-11T18:23:32.418Z,49.82
2023-05-11T18:26:00.005Z,51.87
2023-05-11T18:28:27.624Z,50.89
2023-05-11T18:30:55.480Z,52.53
2023-05-11T18:33:24.219Z,53.88
2023-05-11T18:35:51.739Z,54.89
2023-05-11T18:38:19.206Z,56.49
2023-05-11T18:40:46.501Z,57.72
2023-05-11T18:43:14.113Z,57.25
2023-05-11T18:45:41.605Z,59.41
2023-05-11T18:48:08.926Z,60.01
2023-05-11T18:50:36.550Z,60.54
2023-05-11T18:53:04.282Z,58.50
2023-05-11T18:55:38.505Z,57.26
2023-05-11T18:58:13.116Z,61.75
2023-05-11T19:00:40.755Z,59.95
2023-05-11T19:03:08.199Z,55.50
2023-05-11T19:05:35.763Z,60.87
2023-05-11T19:08:03.673Z,65.08
2023-05-11T19:10:30.928Z,67.50
2023-05-11T19:12:59.786Z,65.96
2023-05-11T19:15:27.218Z,61.05
2023-05-11T19:17:54.529Z,66.29
2023-05-11T19:20:22.051Z,63.66
2023-05-11T19:22:49.596Z,60.86
2023-05-11T19:25:17.626Z,58.98
2023-05-11T19:27:46.366Z,61.24
2023-05-11T19:30:13.721Z,59.46
2023-05-11T19:32:42.439Z,57.06
2023-05-11T19:35:12.906Z,65.55
2023-05-11T19:37:40.463Z,61.33
2023-05-11T19:40:37.941Z,56.91
2023-05-11T19:42:56.005Z,54.54
2023-05-11T19:45:23.919Z,55.45
2023-05-11T19:47:51.582Z,50.15
2023-05-11T19:50:21.806Z,50.99
2023-05-11T19:52:50.823Z,49.01
2023-05-11T19:55:18.161Z,47.37
2023-05-11T19:57:45.764Z,48.74
2023-05-11T20:00:13.067Z,46.49
2023-05-11T20:02:41.006Z,48.89
2023-05-11T20:05:08.397Z,51.04
2023-05-11T20:07:35.670Z,48.71
2023-05-11T20:10:03.435Z,51.08
2023-05-11T20:12:31.337Z,51.48
2023-05-11T20:14:58.504Z,47.56
2023-05-11T20:17:26.035Z,48.95
2023-05-11T20:19:53.236Z,49.32
2023-05-11T20:22:22.564Z,54.44
2023-05-11T20:24:50.486Z,49.37
2023-05-11T20:27:17.620Z,53.67
2023-05-11T20:29:44.834Z,49.94
2023-05-11T20:32:12.555Z,48.81
2023-05-11T20:34:39.730Z,51.77
2023-05-11T20:37:07.415Z,50.85
2023-05-11T20:39:34.881Z,49.05
2023-05-11T20:42:04.126Z,48.81
2023-05-11T20:44:31.258Z,49.98
2023-05-11T20:46:58.794Z,49.11
2023-05-11T20:49:38.042Z,50.45
2023-05-11T20:52:06.818Z,51.47
2023-05-11T20:54:35.100Z,49.77
2023-05-11T20:57:02.676Z,54.83
2023-05-11T21:02:01.932Z,52.98
2023-05-11T21:04:31.497Z,52.26
2023-05-11T21:06:58.761Z,50.17
2023-05-11T21:09:26.058Z,50.27
2023-05-11T21:11:53.509Z,50.34
2023-05-11T21:14:20.660Z,51.15
2023-05-11T21:16:48.074Z,51.00
2023-05-11T21:19:18.606Z,51.85
2023-05-11T21:21:47.072Z,54.75
2023-05-11T21:24:16.564Z,52.57
2023-05-11T21:26:48.036Z,53.64
2023-05-11T21:29:15.373Z,61.24
2023-05-11T21:31:42.537Z,55.06
2023-05-11T21:34:10.030Z,53.18
2023-05-11T21:36:38.893Z,52.24
2023-05-11T21:39:06.168Z,62.86
2023-05-11T21:41:33.644Z,56.56
2023-05-11T21:44:00.810Z,54.06
2023-05-11T21:46:28.008Z,53.33
2023-05-11T21:48:55.537Z,53.33
2023-05-11T21:51:22.762Z,54.95
2023-05-11T21:53:50.288Z,52.58
2023-05-11T21:56:17.754Z,52.41
2023-05-11T21:58:44.915Z,52.47
2023-05-11T22:01:12.341Z,54.96
2023-05-11T22:03:39.838Z,50.33
2023-05-11T22:06:07.097Z,50.54
2023-05-11T22:08:34.377Z,50.91
2023-05-11T22:11:02.376Z,50.20
2023-05-11T22:13:29.609Z,51.32
2023-05-11T22:15:56.806Z,50.68
2023-05-11T22:18:24.517Z,49.95
2023-05-11T22:20:51.743Z,51.35
2023-05-11T22:23:18.899Z,52.91
2023-05-11T22:25:46.401Z,52.39
2023-05-11T22:28:13.532Z,52.23
2023-05-11T22:30:40.818Z,53.61
2023-05-11T22:33:08.284Z,51.79
2023-05-11T22:35:35.552Z,53.23
2023-05-11T22:38:02.787Z,51.85
2023-05-11T22:40:30.205Z,50.69
2023-05-11T22:42:57.348Z,50.70
2023-05-11T22:45:24.503Z,50.67
2023-05-11T22:47:52.008Z,51.73
2023-05-11T22:50:19.382Z,52.41
2023-05-11T22:52:47.358Z,52.38
2023-05-11T22:55:14.784Z,52.76
2023-05-11T22:57:41.969Z,54.01
2023-05-11T23:00:12.681Z,53.76
2023-05-11T23:02:40.272Z,51.39
2023-05-11T23:05:07.946Z,53.09
2023-05-11T23:07:35.307Z,53.69
2023-05-11T23:10:02.704Z,54.04
2023-05-11T23:12:30.118Z,54.80
2023-05-11T23:14:57.371Z,54.64
2023-05-11T23:17:24.927Z,54.05
2023-05-11T23:19:52.155Z,53.14
2023-05-11T23:22:19.319Z,54.33
2023-05-11T23:24:46.800Z,54.13
2023-05-11T23:27:14.356Z,53.10
2023-05-11T23:29:41.524Z,50.48
2023-05-11T23:32:09.320Z,55.38
2023-05-11T23:34:38.030Z,55.08
2023-05-11T23:37:05.262Z,53.58
2023-05-11T23:39:32.761Z,54.53
2023-05-11T23:42:00.801Z,54.75
2023-05-11T23:44:29.006Z,55.10
2023-05-11T23:46:56.646Z,55.62
2023-05-11T23:49:23.911Z,57.15
2023-05-11T23:51:51.045Z,56.89
2023-05-11T23:54:18.568Z,58.13
2023-05-11T23:56:46.745Z,58.07
2023-05-11T23:59:13.929Z,57.08
